< < Back
Terminal Aerodrome Forecast


Current Version              Previous Versions:   1  2  3  4  5  6  7  8  9  

Terminal Aerodrome Forecast

627
FTUS44 KOHX 292340
TAFCSV
TAF
KCSV 292340Z 3000/3024 31005KT P6SM SKC
     FM301000 35003KT 4SM BR OVC015
     FM301500 36006KT P6SM SKC=

Latest METAR

881
SAUS70 KWBC 300200 RRB
MTRCSV
METAR KCSV 300153Z AUTO 00000KT 10SM CLR 27/23 A3009 RMK AO2 SLP164
T02720228


USA.gov is the U.S. government's official web portal to all federal, state and local government web resources and services.